createdAt,value
2019-03-01T00:01:59.029Z,24.80
2019-03-01T00:04:51.654Z,23.07
2019-03-01T00:07:57.612Z,24.77
2019-03-01T00:11:05.495Z,23.77
2019-03-01T00:14:06.190Z,22.90
2019-03-01T00:17:34.480Z,25.33
2019-03-01T00:20:33.233Z,25.47
2019-03-01T00:23:41.322Z,23.02
2019-03-01T00:26:33.546Z,23.07
2019-03-01T00:29:44.765Z,24.93
2019-03-01T00:32:58.045Z,23.18
2019-03-01T00:35:52.569Z,25.57
2019-03-01T00:39:05.126Z,24.20
2019-03-01T00:41:46.571Z,22.97
2019-03-01T00:44:31.773Z,25.17
2019-03-01T00:47:01.063Z,22.20
2019-03-01T00:49:32.786Z,21.87
2019-03-01T00:52:02.008Z,21.67
2019-03-01T00:54:31.365Z,22.80
2019-03-01T00:57:00.590Z,21.40
2019-03-01T00:59:29.898Z,21.23
2019-03-01T01:01:59.019Z,22.23
2019-03-01T01:04:28.280Z,19.23
2019-03-01T01:06:57.524Z,22.70
2019-03-01T01:09:26.723Z,22.47
2019-03-01T01:11:56.025Z,21.60
2019-03-01T01:14:25.510Z,20.53
2019-03-01T01:16:54.766Z,21.13
2019-03-01T01:19:23.984Z,21.47
2019-03-01T01:21:53.191Z,20.40
2019-03-01T10:53:30.445Z,27.50
2019-03-01T10:55:59.756Z,25.17
2019-03-01T10:58:29.209Z,28.00
2019-03-01T11:00:58.391Z,26.17
2019-03-01T11:03:27.654Z,30.20
2019-03-01T11:05:56.867Z,31.43
2019-03-01T11:08:26.150Z,37.23
2019-03-01T11:10:55.431Z,36.60
2019-03-01T11:13:24.670Z,37.87
2019-03-01T11:15:56.636Z,37.00
2019-03-01T11:18:25.878Z,34.40
2019-03-01T11:20:55.089Z,36.67
2019-03-01T11:23:24.412Z,41.43
2019-03-01T11:25:53.664Z,37.17
2019-03-01T11:28:22.978Z,42.00
2019-03-01T11:30:52.318Z,38.77
2019-03-01T11:33:21.596Z,42.17
2019-03-01T11:35:50.855Z,40.37
2019-03-01T11:38:20.106Z,40.27
2019-03-01T11:40:49.404Z,42.00
2019-03-01T11:43:18.676Z,39.63
2019-03-01T11:45:47.887Z,37.83
2019-03-01T11:48:17.092Z,32.57
2019-03-01T11:50:46.534Z,36.27
2019-03-01T11:53:15.749Z,37.47
2019-03-01T11:55:45.061Z,30.80
2019-03-01T11:58:14.319Z,32.00
2019-03-01T12:00:52.054Z,35.33
2019-03-01T12:03:15.530Z,30.33
2019-03-01T12:05:45.168Z,32.63
2019-03-01T12:08:14.366Z,31.57
2019-03-01T12:10:43.652Z,26.33
2019-03-01T12:13:12.944Z,24.57
2019-03-01T12:15:42.158Z,25.07
2019-03-01T12:18:11.317Z,26.50
2019-03-01T12:20:40.649Z,26.33
2019-03-01T12:23:09.855Z,27.43
2019-03-01T12:25:39.084Z,25.47
2019-03-01T12:28:08.429Z,25.60
2019-03-01T12:30:37.564Z,22.90
2019-03-01T12:33:06.825Z,23.07
2019-03-01T12:35:36.029Z,21.50
2019-03-01T12:38:05.236Z,21.27
2019-03-01T12:40:34.554Z,22.57
2019-03-01T12:43:22.858Z,23.33
2019-03-01T12:45:52.140Z,21.23
2019-03-01T12:48:21.367Z,20.53
2019-03-01T12:50:50.607Z,20.27
2019-03-01T12:53:19.843Z,21.73
2019-03-01T12:55:49.077Z,19.00
2019-03-01T12:58:19.658Z,17.37
2019-03-01T13:00:49.111Z,16.40
2019-03-01T13:03:18.413Z,15.80
2019-03-01T13:05:49.429Z,15.60
2019-03-01T13:08:18.705Z,16.20
2019-03-01T13:10:47.991Z,17.57
2019-03-01T13:13:17.224Z,14.43
2019-03-01T13:15:48.666Z,15.70
2019-03-01T13:18:17.449Z,15.63
2019-03-01T13:20:46.986Z,15.80
2019-03-01T13:23:16.193Z,16.13
2019-03-01T13:26:06.083Z,19.57
2019-03-01T13:28:35.298Z,21.80
2019-03-01T13:31:04.514Z,21.33
2019-03-01T13:33:34.827Z,21.07
2019-03-01T13:36:05.134Z,22.90
2019-03-01T13:38:35.348Z,22.13
2019-03-01T13:41:04.787Z,22.17
2019-03-01T13:43:33.976Z,20.57
2019-03-01T13:46:03.173Z,21.17
2019-03-01T13:48:32.399Z,20.70
2019-03-01T13:51:01.677Z,22.07
2019-03-01T13:53:33.318Z,19.60
2019-03-01T13:56:01.877Z,18.67
2019-03-01T13:58:31.075Z,19.80
2019-03-01T14:01:00.323Z,19.73
2019-03-01T14:03:29.532Z,18.53
2019-03-01T14:05:58.819Z,19.63
2019-03-01T14:08:29.285Z,20.27
2019-03-01T14:10:58.561Z,18.43
2019-03-01T14:13:29.302Z,19.27
2019-03-01T14:15:58.930Z,19.37
2019-03-01T14:18:28.177Z,18.97
2019-03-01T14:20:58.226Z,17.17
2019-03-01T14:23:28.440Z,17.10
2019-03-01T14:25:57.708Z,17.27
2019-03-01T14:28:26.890Z,17.03
2019-03-01T14:30:56.019Z,17.20
2019-03-01T14:33:25.246Z,17.47
2019-03-01T14:35:54.455Z,17.73
2019-03-01T14:38:23.660Z,16.60
2019-03-01T14:40:55.920Z,16.00
2019-03-01T14:43:24.912Z,16.57
2019-03-01T14:45:54.255Z,17.00
2019-03-01T14:48:23.481Z,17.27
2019-03-01T14:50:52.694Z,15.60
2019-03-01T14:53:21.898Z,14.17
2019-03-01T14:55:55.691Z,14.43
2019-03-01T14:58:33.231Z,13.23
2019-03-01T15:01:23.336Z,13.60
2019-03-01T15:03:53.645Z,12.40
2019-03-01T15:06:21.947Z,13.50
2019-03-01T15:08:51.165Z,12.00
2019-03-01T15:11:21.850Z,10.83
2019-03-01T15:13:52.631Z,12.70
2019-03-01T15:16:21.921Z,10.23
2019-03-01T15:18:51.459Z,10.73
2019-03-01T15:21:20.606Z,10.97
2019-03-01T15:23:49.877Z,10.10
2019-03-01T15:26:19.149Z,10.83
2019-03-01T15:28:55.356Z,10.50
2019-03-01T15:31:24.142Z,10.73
2019-03-01T15:33:53.445Z,9.20
2019-03-01T15:36:22.673Z,9.00
2019-03-01T15:39:12.758Z,8.30
2019-03-01T15:41:42.955Z,8.43
2019-03-01T15:44:12.409Z,9.67
2019-03-01T15:46:41.592Z,7.47
2019-03-01T15:49:11.742Z,7.30
2019-03-01T15:51:41.989Z,8.33
2019-03-01T15:54:11.297Z,7.17
2019-03-01T15:56:43.004Z,7.10
2019-03-01T15:59:14.253Z,6.93
2019-03-01T16:01:43.722Z,6.13
2019-03-01T16:04:14.385Z,6.77
2019-03-01T16:06:43.521Z,6.67
2019-03-01T16:09:31.954Z,6.20
2019-03-01T16:12:01.235Z,5.63
2019-03-01T16:14:30.465Z,5.73
2019-03-01T16:16:59.804Z,6.40
2019-03-01T16:19:28.905Z,5.80
2019-03-01T16:21:58.169Z,6.87
2019-03-01T16:24:27.755Z,5.77
2019-03-01T16:26:56.952Z,7.13
2019-03-01T16:29:26.161Z,6.87
2019-03-01T16:31:55.466Z,6.40
2019-03-01T16:34:24.732Z,6.50
2019-03-01T16:36:56.240Z,7.07
2019-03-01T16:39:25.532Z,6.97
2019-03-01T16:41:54.802Z,7.33
2019-03-01T16:44:24.020Z,6.70
2019-03-01T16:46:54.209Z,6.70
2019-03-01T16:49:23.593Z,7.50
2019-03-01T16:51:54.796Z,6.93
2019-03-01T16:54:25.083Z,7.10
2019-03-01T16:56:54.335Z,5.80
2019-03-01T16:59:23.687Z,6.80
2019-03-01T17:01:52.875Z,6.80
2019-03-01T17:04:27.089Z,8.30
2019-03-01T17:06:52.929Z,8.20
2019-03-01T17:09:25.318Z,8.50
2019-03-01T17:11:54.657Z,7.00
2019-03-01T17:14:23.849Z,6.53
2019-03-01T17:16:53.023Z,6.80
2019-03-01T17:19:24.115Z,6.57
2019-03-01T17:21:53.134Z,6.43
2019-03-01T17:24:22.368Z,6.60
2019-03-01T17:26:51.582Z,6.70
2019-03-01T17:29:21.092Z,6.73
2019-03-01T17:31:50.195Z,7.10
2019-03-01T17:34:21.914Z,6.07
2019-03-01T17:36:53.301Z,5.70
2019-03-01T17:39:21.259Z,6.40
2019-03-01T17:41:50.417Z,6.60
2019-03-01T17:44:19.555Z,6.87
2019-03-01T17:46:49.192Z,7.47
2019-03-01T17:49:18.346Z,7.63
2019-03-01T17:51:47.577Z,7.00
2019-03-01T17:54:19.041Z,6.37
2019-03-01T17:56:47.674Z,6.50
2019-03-01T17:59:16.958Z,7.00
2019-03-01T18:01:46.186Z,6.60
2019-03-01T18:04:17.507Z,6.50
2019-03-01T18:06:48.668Z,6.73
2019-03-01T18:09:17.556Z,5.97
2019-03-01T18:11:46.824Z,5.77
2019-03-01T18:14:16.149Z,7.27
2019-03-01T18:16:45.252Z,15.87
2019-03-01T18:19:14.553Z,5.77
2019-03-01T18:21:46.340Z,10.27
2019-03-01T18:24:15.250Z,12.73
2019-03-01T18:26:44.810Z,5.67
2019-03-01T18:29:14.083Z,6.57
2019-03-01T18:31:43.285Z,5.60
2019-03-01T18:34:12.480Z,5.97
2019-03-01T18:36:41.775Z,5.43
2019-03-01T18:39:12.205Z,6.17
2019-03-01T18:41:41.363Z,5.20
2019-03-01T18:44:10.679Z,6.13
2019-03-01T18:46:39.974Z,5.43
2019-03-01T18:49:09.247Z,5.27
2019-03-01T18:51:42.352Z,6.07
2019-03-01T18:54:09.470Z,5.67
2019-03-01T18:56:38.673Z,5.60
2019-03-01T18:59:07.925Z,5.10
2019-03-01T19:01:37.174Z,5.07
2019-03-01T19:04:06.544Z,5.40
2019-03-01T19:06:35.809Z,4.87
2019-03-01T19:09:07.226Z,5.40
2019-03-01T19:11:37.955Z,5.80
2019-03-01T19:14:07.303Z,5.80
2019-03-01T19:16:36.671Z,5.30
2019-03-01T19:19:05.956Z,6.40
2019-03-01T19:21:35.238Z,5.80
2019-03-01T19:24:04.750Z,5.70
2019-03-01T19:26:54.542Z,6.23
2019-03-01T19:29:23.844Z,6.77
2019-03-01T19:31:53.671Z,5.27
2019-03-01T19:34:23.288Z,6.37
2019-03-01T19:36:52.571Z,5.93
2019-03-01T19:39:22.890Z,6.10
2019-03-01T19:41:54.457Z,6.90
2019-03-01T19:44:25.630Z,6.40
2019-03-01T19:46:54.022Z,5.47
2019-03-01T19:49:23.344Z,6.63
2019-03-01T19:51:52.606Z,5.70
2019-03-01T19:54:21.812Z,7.10
2019-03-01T19:56:51.057Z,6.63
2019-03-01T19:59:20.363Z,7.13
2019-03-01T20:01:52.382Z,5.77
2019-03-01T20:04:21.101Z,7.27
2019-03-01T20:06:51.159Z,6.73
2019-03-01T20:09:20.394Z,5.63
2019-03-01T20:11:49.711Z,7.00
2019-03-01T20:14:18.909Z,6.93
2019-03-01T20:16:48.185Z,40.37
2019-03-01T20:19:21.036Z,85.07
2019-03-01T20:21:48.422Z,14.33
2019-03-01T20:24:17.637Z,8.33
2019-03-01T20:26:50.040Z,6.20
2019-03-01T20:29:19.161Z,7.87
2019-03-01T20:31:48.516Z,7.87
2019-03-01T20:34:17.675Z,7.83
2019-03-01T20:36:49.595Z,7.20
2019-03-01T20:39:17.984Z,6.90
2019-03-01T20:41:47.258Z,8.93
2019-03-01T20:44:18.652Z,7.80
2019-03-01T20:46:47.418Z,6.43
2019-03-01T20:49:39.103Z,6.93
2019-03-01T20:52:06.639Z,8.73
2019-03-01T20:54:35.834Z,9.07
2019-03-01T20:57:07.958Z,7.93
2019-03-01T20:59:39.067Z,7.33
2019-03-01T21:02:09.572Z,7.47
2019-03-01T21:04:40.397Z,7.07
2019-03-01T21:07:12.480Z,5.87
2019-03-01T21:09:41.315Z,7.63
2019-03-01T21:12:11.929Z,7.23
2019-03-01T21:14:41.345Z,7.37
2019-03-01T21:17:10.615Z,7.47
2019-03-01T21:19:40.813Z,8.33
2019-03-01T21:22:10.858Z,8.23
2019-03-01T21:24:40.054Z,6.53
2019-03-01T21:27:09.277Z,7.07
2019-03-01T21:29:38.477Z,7.23
2019-03-01T21:32:07.678Z,7.13
2019-03-01T21:34:38.436Z,6.57
2019-03-01T21:37:07.777Z,6.40
2019-03-01T21:39:37.010Z,6.80
2019-03-01T21:42:06.341Z,7.27
2019-03-01T21:44:35.632Z,6.60
2019-03-01T21:47:06.822Z,6.73
2019-03-01T21:49:35.752Z,7.03
2019-03-01T21:52:05.050Z,6.50
2019-03-01T21:54:34.241Z,6.67
2019-03-01T21:57:03.554Z,6.53
2019-03-01T21:59:32.866Z,6.33
2019-03-01T22:02:02.101Z,6.47
2019-03-01T22:04:34.398Z,6.20
2019-03-01T22:07:02.899Z,7.23
2019-03-01T22:09:32.300Z,6.40
2019-03-01T22:12:01.522Z,7.50
2019-03-01T22:14:30.831Z,5.97
2019-03-01T22:17:00.101Z,6.20
2019-03-01T22:19:30.485Z,7.23
2019-03-01T22:22:00.227Z,6.63
2019-03-01T22:24:29.425Z,6.73
2019-03-01T22:26:58.674Z,6.23
2019-03-01T22:29:27.950Z,6.37
2019-03-01T22:31:57.165Z,6.73
2019-03-01T22:34:27.452Z,6.93
2019-03-01T22:36:57.311Z,6.63
2019-03-01T22:39:26.599Z,6.40
2019-03-01T22:41:55.856Z,6.50
2019-03-01T22:44:25.139Z,6.53
2019-03-01T22:46:54.414Z,7.20
2019-03-01T22:49:23.917Z,6.33
2019-03-01T22:51:53.812Z,7.03
2019-03-01T22:54:23.155Z,8.53
2019-03-01T22:56:52.368Z,6.17
2019-03-01T22:59:21.603Z,5.43
2019-03-01T23:01:56.554Z,6.17
2019-03-01T23:04:26.613Z,6.17
2019-03-01T23:07:15.805Z,5.50
2019-03-01T23:09:46.555Z,5.60
2019-03-01T23:12:16.011Z,5.70
2019-03-01T23:14:45.208Z,5.97
2019-03-01T23:17:14.418Z,5.83
2019-03-01T23:19:43.621Z,5.43
2019-03-01T23:22:12.834Z,4.93
2019-03-01T23:24:42.120Z,4.97
2019-03-01T23:27:11.240Z,5.23
2019-03-01T23:29:43.484Z,4.80
2019-03-01T23:32:15.516Z,5.33
2019-03-01T23:34:43.770Z,4.80
2019-03-01T23:37:35.515Z,5.03
2019-03-01T23:40:03.210Z,5.30
2019-03-01T23:42:32.387Z,4.43
2019-03-01T23:45:01.623Z,13.70
2019-03-01T23:47:34.675Z,5.60
2019-03-01T23:50:05.317Z,5.20
2019-03-01T23:52:34.419Z,5.10
2019-03-01T23:55:03.841Z,5.10
2019-03-01T23:57:33.050Z,4.93
